sensor_id;sensor_type;location;lat;lon;timestamp;temperature;humidity
15922;DHT22;8060;50.948;3.146;2024-01-30T00:00:46;11.20;99.90
15922;DHT22;8060;50.948;3.146;2024-01-30T00:03:14;11.20;99.90
15922;DHT22;8060;50.948;3.146;2024-01-30T00:05:42;11.20;99.90
15922;DHT22;8060;50.948;3.146;2024-01-30T00:08:11;11.20;99.90
15922;DHT22;8060;50.948;3.146;2024-01-30T00:10:39;11.20;99.90
15922;DHT22;8060;50.948;3.146;2024-01-30T00:13:07;11.30;99.90
15922;DHT22;8060;50.948;3.146;2024-01-30T00:15:36;11.30;99.90
15922;DHT22;8060;50.948;3.146;2024-01-30T00:18:06;11.30;99.90
15922;DHT22;8060;50.948;3.146;2024-01-30T00:20:34;11.30;99.90
15922;DHT22;8060;50.948;3.146;2024-01-30T00:23:02;11.30;99.90
15922;DHT22;8060;50.948;3.146;2024-01-30T00:25:31;11.30;99.90
15922;DHT22;8060;50.948;3.146;2024-01-30T00:28:00;11.30;99.90
15922;DHT22;8060;50.948;3.146;2024-01-30T00:30:28;11.30;99.90
15922;DHT22;8060;50.948;3.146;2024-01-30T00:32:57;11.30;99.90
15922;DHT22;8060;50.948;3.146;2024-01-30T00:35:26;11.20;99.90
15922;DHT22;8060;50.948;3.146;2024-01-30T00:37:56;11.30;99.90
15922;DHT22;8060;50.948;3.146;2024-01-30T00:40:25;11.30;99.90
15922;DHT22;8060;50.948;3.146;2024-01-30T00:42:53;11.30;99.90
15922;DHT22;8060;50.948;3.146;2024-01-30T00:45:21;11.20;99.90
15922;DHT22;8060;50.948;3.146;2024-01-30T00:47:50;11.20;99.90
15922;DHT22;8060;50.948;3.146;2024-01-30T00:50:18;11.10;99.90
15922;DHT22;8060;50.948;3.146;2024-01-30T00:52:48;11.10;99.90
15922;DHT22;8060;50.948;3.146;2024-01-30T00:55:16;11.10;99.90
15922;DHT22;8060;50.948;3.146;2024-01-30T00:57:45;11.00;99.90
15922;DHT22;8060;50.948;3.146;2024-01-30T01:00:14;11.00;99.90
15922;DHT22;8060;50.948;3.146;2024-01-30T01:02:44;11.00;99.90
15922;DHT22;8060;50.948;3.146;2024-01-30T01:05:12;11.00;99.90
15922;DHT22;8060;50.948;3.146;2024-01-30T01:07:41;11.00;99.90
15922;DHT22;8060;50.948;3.146;2024-01-30T01:10:11;11.00;99.90
15922;DHT22;8060;50.948;3.146;2024-01-30T01:12:40;11.10;99.90
15922;DHT22;8060;50.948;3.146;2024-01-30T01:15:09;11.10;99.90
15922;DHT22;8060;50.948;3.146;2024-01-30T01:17:38;11.10;99.90
15922;DHT22;8060;50.948;3.146;2024-01-30T01:20:08;11.10;99.90
15922;DHT22;8060;50.948;3.146;2024-01-30T01:22:38;11.00;99.90
15922;DHT22;8060;50.948;3.146;2024-01-30T01:25:07;11.00;99.90
15922;DHT22;8060;50.948;3.146;2024-01-30T01:27:36;11.00;99.90
15922;DHT22;8060;50.948;3.146;2024-01-30T01:30:09;11.00;99.90
15922;DHT22;8060;50.948;3.146;2024-01-30T01:32:39;11.10;99.90
15922;DHT22;8060;50.948;3.146;2024-01-30T01:35:12;11.00;99.90
15922;DHT22;8060;50.948;3.146;2024-01-30T01:37:40;11.10;99.90
15922;DHT22;8060;50.948;3.146;2024-01-30T01:40:09;11.10;99.90
15922;DHT22;8060;50.948;3.146;2024-01-30T01:42:39;11.00;99.90
15922;DHT22;8060;50.948;3.146;2024-01-30T01:45:07;11.00;99.90
15922;DHT22;8060;50.948;3.146;2024-01-30T01:47:36;11.00;99.90
15922;DHT22;8060;50.948;3.146;2024-01-30T01:50:05;11.00;99.90
15922;DHT22;8060;50.948;3.146;2024-01-30T01:52:34;11.00;99.90
15922;DHT22;8060;50.948;3.146;2024-01-30T01:55:02;11.00;99.90
15922;DHT22;8060;50.948;3.146;2024-01-30T01:57:30;10.90;99.90
15922;DHT22;8060;50.948;3.146;2024-01-30T02:00:01;10.90;99.90
15922;DHT22;8060;50.948;3.146;2024-01-30T02:02:35;10.90;99.90
15922;DHT22;8060;50.948;3.146;2024-01-30T02:05:04;10.90;99.90
15922;DHT22;8060;50.948;3.146;2024-01-30T02:07:33;10.90;99.90
15922;DHT22;8060;50.948;3.146;2024-01-30T02:10:01;10.90;99.90
15922;DHT22;8060;50.948;3.146;2024-01-30T02:12:30;10.90;99.90
15922;DHT22;8060;50.948;3.146;2024-01-30T02:15:00;10.90;99.90
15922;DHT22;8060;50.948;3.146;2024-01-30T02:17:28;10.90;99.90
15922;DHT22;8060;50.948;3.146;2024-01-30T02:19:56;10.90;99.90
15922;DHT22;8060;50.948;3.146;2024-01-30T02:22:26;11.00;99.90
15922;DHT22;8060;50.948;3.146;2024-01-30T02:24:54;10.90;99.90
15922;DHT22;8060;50.948;3.146;2024-01-30T02:27:22;10.90;99.90
15922;DHT22;8060;50.948;3.146;2024-01-30T02:29:50;11.00;99.90
15922;DHT22;8060;50.948;3.146;2024-01-30T02:32:18;11.00;99.90
15922;DHT22;8060;50.948;3.146;2024-01-30T02:34:46;11.00;99.90
15922;DHT22;8060;50.948;3.146;2024-01-30T02:37:14;11.10;99.90
15922;DHT22;8060;50.948;3.146;2024-01-30T02:39:44;11.10;99.90
15922;DHT22;8060;50.948;3.146;2024-01-30T02:42:12;11.10;99.90
15922;DHT22;8060;50.948;3.146;2024-01-30T02:44:40;11.00;99.90
15922;DHT22;8060;50.948;3.146;2024-01-30T02:47:08;11.00;99.90
15922;DHT22;8060;50.948;3.146;2024-01-30T02:49:36;11.00;99.90
15922;DHT22;8060;50.948;3.146;2024-01-30T02:52:05;11.00;99.90
15922;DHT22;8060;50.948;3.146;2024-01-30T02:54:34;11.00;99.90
15922;DHT22;8060;50.948;3.146;2024-01-30T02:57:04;11.10;99.90
15922;DHT22;8060;50.948;3.146;2024-01-30T02:59:32;11.10;99.90
15922;DHT22;8060;50.948;3.146;2024-01-30T03:02:02;11.10;99.90
15922;DHT22;8060;50.948;3.146;2024-01-30T03:04:31;11.20;99.90
15922;DHT22;8060;50.948;3.146;2024-01-30T03:06:59;11.20;99.90
15922;DHT22;8060;50.948;3.146;2024-01-30T03:09:27;11.20;99.90
15922;DHT22;8060;50.948;3.146;2024-01-30T03:11:55;11.20;99.90
15922;DHT22;8060;50.948;3.146;2024-01-30T03:14:24;11.20;99.90
15922;DHT22;8060;50.948;3.146;2024-01-30T03:16:53;11.10;99.90
15922;DHT22;8060;50.948;3.146;2024-01-30T03:19:21;11.10;99.90
15922;DHT22;8060;50.948;3.146;2024-01-30T03:21:49;11.10;99.90
15922;DHT22;8060;50.948;3.146;2024-01-30T03:24:17;11.20;99.90
15922;DHT22;8060;50.948;3.146;2024-01-30T03:26:46;11.10;99.90
15922;DHT22;8060;50.948;3.146;2024-01-30T03:29:14;11.10;99.90
15922;DHT22;8060;50.948;3.146;2024-01-30T03:31:43;11.20;99.90
15922;DHT22;8060;50.948;3.146;2024-01-30T03:34:11;11.20;99.90
15922;DHT22;8060;50.948;3.146;2024-01-30T03:36:40;11.10;99.90
15922;DHT22;8060;50.948;3.146;2024-01-30T03:39:08;11.20;99.90
15922;DHT22;8060;50.948;3.146;2024-01-30T03:41:36;11.10;99.90
15922;DHT22;8060;50.948;3.146;2024-01-30T03:44:04;11.20;99.90
15922;DHT22;8060;50.948;3.146;2024-01-30T03:46:32;11.10;99.90
15922;DHT22;8060;50.948;3.146;2024-01-30T03:49:02;11.20;99.90
15922;DHT22;8060;50.948;3.146;2024-01-30T03:51:30;11.20;99.90
15922;DHT22;8060;50.948;3.146;2024-01-30T03:53:58;11.20;99.90
15922;DHT22;8060;50.948;3.146;2024-01-30T03:56:26;11.20;99.90
15922;DHT22;8060;50.948;3.146;2024-01-30T03:58:54;11.10;99.90
15922;DHT22;8060;50.948;3.146;2024-01-30T04:01:23;11.10;99.90
15922;DHT22;8060;50.948;3.146;2024-01-30T04:03:52;11.00;99.90
15922;DHT22;8060;50.948;3.146;2024-01-30T04:06:21;11.10;99.90
15922;DHT22;8060;50.948;3.146;2024-01-30T04:08:49;11.10;99.90
15922;DHT22;8060;50.948;3.146;2024-01-30T04:11:18;11.10;99.90
15922;DHT22;8060;50.948;3.146;2024-01-30T04:13:47;11.10;99.90
15922;DHT22;8060;50.948;3.146;2024-01-30T04:16:19;11.10;99.90
15922;DHT22;8060;50.948;3.146;2024-01-30T04:18:49;11.00;99.90
15922;DHT22;8060;50.948;3.146;2024-01-30T04:21:17;11.00;99.90
15922;DHT22;8060;50.948;3.146;2024-01-30T04:23:47;10.90;99.90
15922;DHT22;8060;50.948;3.146;2024-01-30T04:26:15;11.00;99.90
15922;DHT22;8060;50.948;3.146;2024-01-30T04:28:44;11.00;99.90
15922;DHT22;8060;50.948;3.146;2024-01-30T04:31:12;11.00;99.90
15922;DHT22;8060;50.948;3.146;2024-01-30T04:33:40;10.90;99.90
15922;DHT22;8060;50.948;3.146;2024-01-30T04:36:09;10.90;99.90
15922;DHT22;8060;50.948;3.146;2024-01-30T04:38:38;10.90;99.90
15922;DHT22;8060;50.948;3.146;2024-01-30T04:41:07;10.90;99.90
15922;DHT22;8060;50.948;3.146;2024-01-30T04:43:35;10.90;99.90
15922;DHT22;8060;50.948;3.146;2024-01-30T04:46:04;10.90;99.90
15922;DHT22;8060;50.948;3.146;2024-01-30T04:48:32;10.80;99.90
15922;DHT22;8060;50.948;3.146;2024-01-30T04:51:00;10.80;99.90
15922;DHT22;8060;50.948;3.146;2024-01-30T04:53:31;10.80;99.90
15922;DHT22;8060;50.948;3.146;2024-01-30T04:55:59;10.80;99.90
15922;DHT22;8060;50.948;3.146;2024-01-30T04:58:28;10.90;99.90
15922;DHT22;8060;50.948;3.146;2024-01-30T05:00:56;10.90;99.90
15922;DHT22;8060;50.948;3.146;2024-01-30T05:03:25;10.90;99.90
15922;DHT22;8060;50.948;3.146;2024-01-30T05:05:53;10.90;99.90
15922;DHT22;8060;50.948;3.146;2024-01-30T05:08:21;10.80;99.90
15922;DHT22;8060;50.948;3.146;2024-01-30T05:10:49;10.80;99.90
15922;DHT22;8060;50.948;3.146;2024-01-30T05:13:18;10.80;99.90
15922;DHT22;8060;50.948;3.146;2024-01-30T05:15:47;10.80;99.90
15922;DHT22;8060;50.948;3.146;2024-01-30T05:18:16;10.90;99.90
15922;DHT22;8060;50.948;3.146;2024-01-30T05:20:44;10.90;99.90
15922;DHT22;8060;50.948;3.146;2024-01-30T05:23:12;10.90;99.90
15922;DHT22;8060;50.948;3.146;2024-01-30T05:25:40;10.90;99.90
15922;DHT22;8060;50.948;3.146;2024-01-30T05:28:08;10.80;99.90
15922;DHT22;8060;50.948;3.146;2024-01-30T05:30:37;10.90;99.90
15922;DHT22;8060;50.948;3.146;2024-01-30T05:33:06;10.90;99.90
15922;DHT22;8060;50.948;3.146;2024-01-30T05:35:34;10.90;99.90
15922;DHT22;8060;50.948;3.146;2024-01-30T05:38:03;11.00;99.90
15922;DHT22;8060;50.948;3.146;2024-01-30T05:40:31;11.00;99.90
15922;DHT22;8060;50.948;3.146;2024-01-30T05:42:59;10.90;99.90
15922;DHT22;8060;50.948;3.146;2024-01-30T05:45:29;10.90;99.90
15922;DHT22;8060;50.948;3.146;2024-01-30T05:47:57;10.90;99.90
15922;DHT22;8060;50.948;3.146;2024-01-30T05:50:27;11.00;99.90
15922;DHT22;8060;50.948;3.146;2024-01-30T05:52:55;11.10;99.90
15922;DHT22;8060;50.948;3.146;2024-01-30T05:55:24;11.10;99.90
15922;DHT22;8060;50.948;3.146;2024-01-30T05:57:52;11.10;99.90
15922;DHT22;8060;50.948;3.146;2024-01-30T06:00:20;11.00;99.90
15922;DHT22;8060;50.948;3.146;2024-01-30T06:02:48;11.00;99.90
15922;DHT22;8060;50.948;3.146;2024-01-30T06:05:16;11.00;99.90
15922;DHT22;8060;50.948;3.146;2024-01-30T06:07:46;11.00;99.90
15922;DHT22;8060;50.948;3.146;2024-01-30T06:10:14;10.90;99.90
15922;DHT22;8060;50.948;3.146;2024-01-30T06:12:43;11.00;99.90
15922;DHT22;8060;50.948;3.146;2024-01-30T06:15:11;11.10;99.90
15922;DHT22;8060;50.948;3.146;2024-01-30T06:17:39;11.10;99.90
15922;DHT22;8060;50.948;3.146;2024-01-30T06:20:07;11.00;99.90
15922;DHT22;8060;50.948;3.146;2024-01-30T06:22:36;11.10;99.90
15922;DHT22;8060;50.948;3.146;2024-01-30T06:25:06;11.10;99.90
15922;DHT22;8060;50.948;3.146;2024-01-30T06:27:34;11.20;99.90
15922;DHT22;8060;50.948;3.146;2024-01-30T06:30:03;11.10;99.90
15922;DHT22;8060;50.948;3.146;2024-01-30T06:32:31;11.20;99.90
15922;DHT22;8060;50.948;3.146;2024-01-30T06:35:01;11.20;99.90
15922;DHT22;8060;50.948;3.146;2024-01-30T06:37:30;11.20;99.90
15922;DHT22;8060;50.948;3.146;2024-01-30T06:39:58;11.20;99.90
15922;DHT22;8060;50.948;3.146;2024-01-30T06:42:27;11.20;99.90
15922;DHT22;8060;50.948;3.146;2024-01-30T06:44:55;11.20;99.90
15922;DHT22;8060;50.948;3.146;2024-01-30T06:47:24;11.20;99.90
15922;DHT22;8060;50.948;3.146;2024-01-30T06:49:52;11.10;99.90
15922;DHT22;8060;50.948;3.146;2024-01-30T06:52:20;11.20;99.90
15922;DHT22;8060;50.948;3.146;2024-01-30T06:54:48;11.20;99.90
15922;DHT22;8060;50.948;3.146;2024-01-30T06:57:17;11.20;99.90
15922;DHT22;8060;50.948;3.146;2024-01-30T06:59:46;11.20;99.90
15922;DHT22;8060;50.948;3.146;2024-01-30T07:02:14;11.20;99.90
15922;DHT22;8060;50.948;3.146;2024-01-30T07:04:43;11.20;99.90
15922;DHT22;8060;50.948;3.146;2024-01-30T07:07:13;11.10;99.90
15922;DHT22;8060;50.948;3.146;2024-01-30T07:09:42;11.20;99.90
15922;DHT22;8060;50.948;3.146;2024-01-30T07:12:11;11.10;99.90
15922;DHT22;8060;50.948;3.146;2024-01-30T07:14:39;11.10;99.90
15922;DHT22;8060;50.948;3.146;2024-01-30T07:17:08;11.20;99.90
15922;DHT22;8060;50.948;3.146;2024-01-30T07:19:36;11.20;99.90
15922;DHT22;8060;50.948;3.146;2024-01-30T07:22:05;11.10;99.90
15922;DHT22;8060;50.948;3.146;2024-01-30T07:24:33;11.10;99.90
15922;DHT22;8060;50.948;3.146;2024-01-30T07:27:01;11.10;99.90
15922;DHT22;8060;50.948;3.146;2024-01-30T07:29:30;11.10;99.90
15922;DHT22;8060;50.948;3.146;2024-01-30T07:31:58;11.10;99.90
15922;DHT22;8060;50.948;3.146;2024-01-30T07:34:27;11.10;99.90
15922;DHT22;8060;50.948;3.146;2024-01-30T07:36:55;11.10;99.90
15922;DHT22;8060;50.948;3.146;2024-01-30T07:39:23;11.10;99.90
15922;DHT22;8060;50.948;3.146;2024-01-30T07:41:52;11.10;99.90
15922;DHT22;8060;50.948;3.146;2024-01-30T07:44:20;11.10;99.90
15922;DHT22;8060;50.948;3.146;2024-01-30T07:46:48;11.10;99.90
15922;DHT22;8060;50.948;3.146;2024-01-30T07:49:16;11.10;99.90
15922;DHT22;8060;50.948;3.146;2024-01-30T07:51:46;11.10;99.90
15922;DHT22;8060;50.948;3.146;2024-01-30T07:54:14;11.00;99.90
15922;DHT22;8060;50.948;3.146;2024-01-30T07:56:42;11.00;99.90
15922;DHT22;8060;50.948;3.146;2024-01-30T07:59:10;11.00;99.90
15922;DHT22;8060;50.948;3.146;2024-01-30T08:01:38;11.10;99.90
15922;DHT22;8060;50.948;3.146;2024-01-30T08:04:07;11.00;99.90
15922;DHT22;8060;50.948;3.146;2024-01-30T08:06:35;11.00;99.90
15922;DHT22;8060;50.948;3.146;2024-01-30T08:09:07;11.00;99.90
15922;DHT22;8060;50.948;3.146;2024-01-30T08:11:36;11.00;99.90
15922;DHT22;8060;50.948;3.146;2024-01-30T08:14:04;11.10;99.90
15922;DHT22;8060;50.948;3.146;2024-01-30T08:16:32;11.20;99.90
15922;DHT22;8060;50.948;3.146;2024-01-30T08:19:01;11.10;99.90
15922;DHT22;8060;50.948;3.146;2024-01-30T08:21:30;11.10;99.90
15922;DHT22;8060;50.948;3.146;2024-01-30T08:24:07;11.10;99.90
15922;DHT22;8060;50.948;3.146;2024-01-30T08:26:36;11.10;99.90
15922;DHT22;8060;50.948;3.146;2024-01-30T08:29:04;11.10;99.90
15922;DHT22;8060;50.948;3.146;2024-01-30T08:31:32;11.10;99.90
15922;DHT22;8060;50.948;3.146;2024-01-30T08:34:00;11.10;99.90
15922;DHT22;8060;50.948;3.146;2024-01-30T08:36:29;11.10;99.90
15922;DHT22;8060;50.948;3.146;2024-01-30T08:38:57;11.10;99.90
15922;DHT22;8060;50.948;3.146;2024-01-30T08:41:32;11.10;99.90
15922;DHT22;8060;50.948;3.146;2024-01-30T08:44:00;11.10;99.90
15922;DHT22;8060;50.948;3.146;2024-01-30T08:46:28;11.10;99.90
15922;DHT22;8060;50.948;3.146;2024-01-30T08:48:57;11.10;99.90
15922;DHT22;8060;50.948;3.146;2024-01-30T08:51:25;11.10;99.90
15922;DHT22;8060;50.948;3.146;2024-01-30T08:53:54;11.00;99.90
15922;DHT22;8060;50.948;3.146;2024-01-30T08:56:22;11.00;99.90
15922;DHT22;8060;50.948;3.146;2024-01-30T08:58:51;11.00;99.90
15922;DHT22;8060;50.948;3.146;2024-01-30T09:01:20;11.00;99.90
15922;DHT22;8060;50.948;3.146;2024-01-30T09:03:48;11.10;99.90
15922;DHT22;8060;50.948;3.146;2024-01-30T09:06:16;11.00;99.90
15922;DHT22;8060;50.948;3.146;2024-01-30T09:08:44;11.00;99.90
15922;DHT22;8060;50.948;3.146;2024-01-30T09:11:13;10.90;99.90
15922;DHT22;8060;50.948;3.146;2024-01-30T09:13:42;10.90;99.90
15922;DHT22;8060;50.948;3.146;2024-01-30T09:16:11;10.80;99.90
15922;DHT22;8060;50.948;3.146;2024-01-30T09:18:40;10.80;99.90
15922;DHT22;8060;50.948;3.146;2024-01-30T09:21:10;10.80;99.90
15922;DHT22;8060;50.948;3.146;2024-01-30T09:23:39;10.80;99.90
15922;DHT22;8060;50.948;3.146;2024-01-30T09:26:07;10.80;99.90
15922;DHT22;8060;50.948;3.146;2024-01-30T09:28:36;10.80;99.90
15922;DHT22;8060;50.948;3.146;2024-01-30T09:31:04;10.80;99.90
15922;DHT22;8060;50.948;3.146;2024-01-30T09:33:38;10.70;99.90
15922;DHT22;8060;50.948;3.146;2024-01-30T09:36:08;10.70;99.90
15922;DHT22;8060;50.948;3.146;2024-01-30T09:38:35;10.70;99.90
15922;DHT22;8060;50.948;3.146;2024-01-30T09:41:08;10.80;99.90
15922;DHT22;8060;50.948;3.146;2024-01-30T09:43:38;10.80;99.90
15922;DHT22;8060;50.948;3.146;2024-01-30T09:46:09;10.70;99.90
15922;DHT22;8060;50.948;3.146;2024-01-30T09:48:41;10.70;99.90
15922;DHT22;8060;50.948;3.146;2024-01-30T09:51:09;10.70;99.90
15922;DHT22;8060;50.948;3.146;2024-01-30T09:53:39;10.70;99.90
15922;DHT22;8060;50.948;3.146;2024-01-30T09:56:08;10.70;99.90
15922;DHT22;8060;50.948;3.146;2024-01-30T09:58:36;10.60;99.90
15922;DHT22;8060;50.948;3.146;2024-01-30T10:01:04;10.70;99.90
15922;DHT22;8060;50.948;3.146;2024-01-30T10:03:32;10.70;99.90
15922;DHT22;8060;50.948;3.146;2024-01-30T10:06:02;10.70;99.90
15922;DHT22;8060;50.948;3.146;2024-01-30T10:08:31;10.70;99.90
15922;DHT22;8060;50.948;3.146;2024-01-30T10:11:00;10.70;99.90
15922;DHT22;8060;50.948;3.146;2024-01-30T10:13:28;10.70;99.90
15922;DHT22;8060;50.948;3.146;2024-01-30T10:15:57;10.70;99.90
15922;DHT22;8060;50.948;3.146;2024-01-30T10:18:25;10.70;99.90
15922;DHT22;8060;50.948;3.146;2024-01-30T10:20:53;10.80;99.90
15922;DHT22;8060;50.948;3.146;2024-01-30T10:23:23;10.80;99.90
15922;DHT22;8060;50.948;3.146;2024-01-30T10:25:52;11.10;99.90
15922;DHT22;8060;50.948;3.146;2024-01-30T10:28:20;11.40;99.90
15922;DHT22;8060;50.948;3.146;2024-01-30T10:30:57;11.70;99.90
15922;DHT22;8060;50.948;3.146;2024-01-30T10:33:32;11.80;99.90
15922;DHT22;8060;50.948;3.146;2024-01-30T10:36:02;11.70;99.90
15922;DHT22;8060;50.948;3.146;2024-01-30T10:38:33;11.60;99.90
15922;DHT22;8060;50.948;3.146;2024-01-30T10:41:01;11.50;99.90
15922;DHT22;8060;50.948;3.146;2024-01-30T10:43:31;11.50;99.90
15922;DHT22;8060;50.948;3.146;2024-01-30T10:46:10;11.30;99.90
15922;DHT22;8060;50.948;3.146;2024-01-30T10:48:42;11.10;99.90
15922;DHT22;8060;50.948;3.146;2024-01-30T10:51:13;11.10;99.90
15922;DHT22;8060;50.948;3.146;2024-01-30T10:53:44;11.00;99.90
15922;DHT22;8060;50.948;3.146;2024-01-30T10:56:16;11.10;99.90
15922;DHT22;8060;50.948;3.146;2024-01-30T10:58:45;11.10;99.90
15922;DHT22;8060;50.948;3.146;2024-01-30T11:01:13;11.10;99.90
15922;DHT22;8060;50.948;3.146;2024-01-30T11:03:42;11.10;99.90
15922;DHT22;8060;50.948;3.146;2024-01-30T11:06:11;11.00;99.90
15922;DHT22;8060;50.948;3.146;2024-01-30T11:08:40;11.10;99.90
15922;DHT22;8060;50.948;3.146;2024-01-30T11:11:10;11.10;99.90
15922;DHT22;8060;50.948;3.146;2024-01-30T11:13:42;11.20;99.90
15922;DHT22;8060;50.948;3.146;2024-01-30T11:16:11;11.20;99.90
15922;DHT22;8060;50.948;3.146;2024-01-30T11:18:40;11.20;99.90
15922;DHT22;8060;50.948;3.146;2024-01-30T11:21:08;11.10;99.90
15922;DHT22;8060;50.948;3.146;2024-01-30T11:23:36;11.00;99.90
15922;DHT22;8060;50.948;3.146;2024-01-30T11:26:06;11.00;99.90
15922;DHT22;8060;50.948;3.146;2024-01-30T11:28:38;11.00;99.90
15922;DHT22;8060;50.948;3.146;2024-01-30T11:31:06;11.00;99.90
15922;DHT22;8060;50.948;3.146;2024-01-30T11:33:35;10.90;99.90
15922;DHT22;8060;50.948;3.146;2024-01-30T11:36:04;10.90;99.90
15922;DHT22;8060;50.948;3.146;2024-01-30T11:38:34;10.90;99.90
15922;DHT22;8060;50.948;3.146;2024-01-30T11:41:03;10.80;99.90
15922;DHT22;8060;50.948;3.146;2024-01-30T11:43:32;10.80;99.90
15922;DHT22;8060;50.948;3.146;2024-01-30T11:46:05;10.70;99.90
15922;DHT22;8060;50.948;3.146;2024-01-30T11:48:34;10.70;99.90
15922;DHT22;8060;50.948;3.146;2024-01-30T11:51:02;10.70;99.90
15922;DHT22;8060;50.948;3.146;2024-01-30T11:53:30;10.80;99.90
15922;DHT22;8060;50.948;3.146;2024-01-30T11:55:58;10.70;99.90
15922;DHT22;8060;50.948;3.146;2024-01-30T11:58:26;10.70;99.90
15922;DHT22;8060;50.948;3.146;2024-01-30T12:00:55;10.70;99.90
15922;DHT22;8060;50.948;3.146;2024-01-30T12:03:25;10.70;99.90
15922;DHT22;8060;50.948;3.146;2024-01-30T12:05:57;10.70;99.90
15922;DHT22;8060;50.948;3.146;2024-01-30T12:08:26;10.70;99.90
15922;DHT22;8060;50.948;3.146;2024-01-30T12:10:58;10.60;99.90
15922;DHT22;8060;50.948;3.146;2024-01-30T12:13:28;10.60;99.90
15922;DHT22;8060;50.948;3.146;2024-01-30T12:15:59;10.70;99.90
15922;DHT22;8060;50.948;3.146;2024-01-30T12:18:30;10.70;99.90
15922;DHT22;8060;50.948;3.146;2024-01-30T12:21:01;10.70;99.90
15922;DHT22;8060;50.948;3.146;2024-01-30T12:23:29;10.60;99.90
15922;DHT22;8060;50.948;3.146;2024-01-30T12:25:58;10.60;99.90
15922;DHT22;8060;50.948;3.146;2024-01-30T12:28:26;10.60;99.90
15922;DHT22;8060;50.948;3.146;2024-01-30T12:30:55;10.60;99.90
15922;DHT22;8060;50.948;3.146;2024-01-30T12:33:26;10.60;99.90
15922;DHT22;8060;50.948;3.146;2024-01-30T12:35:56;10.60;99.90
15922;DHT22;8060;50.948;3.146;2024-01-30T12:38:30;10.60;99.90
15922;DHT22;8060;50.948;3.146;2024-01-30T12:40:58;10.60;99.90
15922;DHT22;8060;50.948;3.146;2024-01-30T12:43:26;10.60;99.90
15922;DHT22;8060;50.948;3.146;2024-01-30T12:46:05;10.60;99.90
15922;DHT22;8060;50.948;3.146;2024-01-30T12:48:33;10.60;99.90
15922;DHT22;8060;50.948;3.146;2024-01-30T12:51:03;10.60;99.90
15922;DHT22;8060;50.948;3.146;2024-01-30T12:53:32;10.60;99.90
15922;DHT22;8060;50.948;3.146;2024-01-30T12:56:00;10.60;99.90
15922;DHT22;8060;50.948;3.146;2024-01-30T12:58:28;10.60;99.90
15922;DHT22;8060;50.948;3.146;2024-01-30T13:00:57;10.60;99.90
15922;DHT22;8060;50.948;3.146;2024-01-30T13:03:25;10.60;99.90
15922;DHT22;8060;50.948;3.146;2024-01-30T13:05:53;10.60;99.90
15922;DHT22;8060;50.948;3.146;2024-01-30T13:08:23;10.60;99.90
15922;DHT22;8060;50.948;3.146;2024-01-30T13:10:51;10.60;99.90
15922;DHT22;8060;50.948;3.146;2024-01-30T13:13:19;10.60;99.90
15922;DHT22;8060;50.948;3.146;2024-01-30T13:15:48;10.60;99.90
15922;DHT22;8060;50.948;3.146;2024-01-30T13:18:16;10.60;99.90
15922;DHT22;8060;50.948;3.146;2024-01-30T13:20:44;10.50;99.90
15922;DHT22;8060;50.948;3.146;2024-01-30T13:23:12;10.50;99.90
15922;DHT22;8060;50.948;3.146;2024-01-30T13:25:42;10.50;99.90
15922;DHT22;8060;50.948;3.146;2024-01-30T13:28:10;10.50;99.90
15922;DHT22;8060;50.948;3.146;2024-01-30T13:30:38;10.50;99.90
15922;DHT22;8060;50.948;3.146;2024-01-30T13:33:06;10.50;99.90
15922;DHT22;8060;50.948;3.146;2024-01-30T13:35:34;10.40;99.90
15922;DHT22;8060;50.948;3.146;2024-01-30T13:38:03;10.40;99.90
15922;DHT22;8060;50.948;3.146;2024-01-30T13:40:31;10.40;99.90
15922;DHT22;8060;50.948;3.146;2024-01-30T13:43:00;10.40;99.90
15922;DHT22;8060;50.948;3.146;2024-01-30T13:45:28;10.40;99.90
15922;DHT22;8060;50.948;3.146;2024-01-30T13:47:57;10.40;99.90
15922;DHT22;8060;50.948;3.146;2024-01-30T13:50:26;10.40;99.90
15922;DHT22;8060;50.948;3.146;2024-01-30T13:52:54;10.40;99.90
15922;DHT22;8060;50.948;3.146;2024-01-30T13:55:24;10.40;99.90
15922;DHT22;8060;50.948;3.146;2024-01-30T13:57:52;10.40;99.90
15922;DHT22;8060;50.948;3.146;2024-01-30T14:00:22;10.40;99.90
15922;DHT22;8060;50.948;3.146;2024-01-30T14:02:52;10.40;99.90
15922;DHT22;8060;50.948;3.146;2024-01-30T14:05:21;10.40;99.90
15922;DHT22;8060;50.948;3.146;2024-01-30T14:07:50;10.30;99.90
15922;DHT22;8060;50.948;3.146;2024-01-30T14:10:18;10.40;99.90
15922;DHT22;8060;50.948;3.146;2024-01-30T14:12:46;10.30;99.90
15922;DHT22;8060;50.948;3.146;2024-01-30T14:15:15;10.40;99.90
15922;DHT22;8060;50.948;3.146;2024-01-30T14:17:56;10.30;99.90
15922;DHT22;8060;50.948;3.146;2024-01-30T14:20:25;10.30;99.90
15922;DHT22;8060;50.948;3.146;2024-01-30T14:22:54;10.30;99.90
15922;DHT22;8060;50.948;3.146;2024-01-30T14:25:23;10.20;99.90
15922;DHT22;8060;50.948;3.146;2024-01-30T14:27:52;10.10;99.90
15922;DHT22;8060;50.948;3.146;2024-01-30T14:30:20;10.10;99.90
15922;DHT22;8060;50.948;3.146;2024-01-30T14:32:48;10.00;99.90
15922;DHT22;8060;50.948;3.146;2024-01-30T14:35:18;10.00;99.90
15922;DHT22;8060;50.948;3.146;2024-01-30T14:37:47;10.00;99.90
15922;DHT22;8060;50.948;3.146;2024-01-30T14:40:15;10.00;99.90
15922;DHT22;8060;50.948;3.146;2024-01-30T14:42:43;10.00;99.90
15922;DHT22;8060;50.948;3.146;2024-01-30T14:45:11;10.00;99.90
15922;DHT22;8060;50.948;3.146;2024-01-30T14:47:39;10.00;99.90
15922;DHT22;8060;50.948;3.146;2024-01-30T14:50:08;9.90;99.90
15922;DHT22;8060;50.948;3.146;2024-01-30T14:52:38;9.90;99.90
15922;DHT22;8060;50.948;3.146;2024-01-30T14:55:07;9.90;99.90
15922;DHT22;8060;50.948;3.146;2024-01-30T14:57:36;9.90;99.90
15922;DHT22;8060;50.948;3.146;2024-01-30T15:00:06;9.90;99.90
15922;DHT22;8060;50.948;3.146;2024-01-30T15:02:35;9.90;99.90
15922;DHT22;8060;50.948;3.146;2024-01-30T15:05:04;9.90;99.90
15922;DHT22;8060;50.948;3.146;2024-01-30T15:07:33;9.90;99.90
15922;DHT22;8060;50.948;3.146;2024-01-30T15:10:08;9.90;99.90
15922;DHT22;8060;50.948;3.146;2024-01-30T15:12:37;9.80;99.90
15922;DHT22;8060;50.948;3.146;2024-01-30T15:15:07;9.80;99.90
15922;DHT22;8060;50.948;3.146;2024-01-30T15:17:37;9.80;99.90
15922;DHT22;8060;50.948;3.146;2024-01-30T15:20:06;9.80;99.90
15922;DHT22;8060;50.948;3.146;2024-01-30T15:22:34;9.80;99.90
15922;DHT22;8060;50.948;3.146;2024-01-30T15:25:03;9.70;99.90
15922;DHT22;8060;50.948;3.146;2024-01-30T15:27:34;9.70;99.90
15922;DHT22;8060;50.948;3.146;2024-01-30T15:30:02;9.60;99.90
15922;DHT22;8060;50.948;3.146;2024-01-30T15:32:31;9.70;99.90
15922;DHT22;8060;50.948;3.146;2024-01-30T15:35:00;9.70;99.90
15922;DHT22;8060;50.948;3.146;2024-01-30T15:37:31;9.70;99.90
15922;DHT22;8060;50.948;3.146;2024-01-30T15:40:00;9.70;99.90
15922;DHT22;8060;50.948;3.146;2024-01-30T15:42:29;9.70;99.90
15922;DHT22;8060;50.948;3.146;2024-01-30T15:44:58;9.70;99.90
15922;DHT22;8060;50.948;3.146;2024-01-30T15:47:27;9.70;99.90
15922;DHT22;8060;50.948;3.146;2024-01-30T15:49:55;9.70;99.90
15922;DHT22;8060;50.948;3.146;2024-01-30T15:52:23;9.70;99.90
15922;DHT22;8060;50.948;3.146;2024-01-30T15:54:52;9.60;99.90
15922;DHT22;8060;50.948;3.146;2024-01-30T15:57:20;9.60;99.90